Time;durP1;ratioP1;P1;durP2;ratioP2;P2;SDS_P1;SDS_P2;PMS_P1;PMS_P2;Temp;Humidity;BMP_temperature;BMP_pressure;BME280_temperature;BME280_humidity;BME280_pressure;Samples;Min_cycle;Max_cycle;Signal;HPM_P1;HPM_P2
2021/03/29 00:00:11;;;;;;;3.80;1.70;;;19.70;46.40;;;;;;4971705;28;20489;-70
2021/03/29 00:02:37;;;;;;;3.33;1.80;;;19.70;46.30;;;;;;4961301;28;20969;-70
2021/03/29 00:05:04;;;;;;;4.47;1.50;;;19.80;46.20;;;;;;4973233;28;20477;-71
2021/03/29 00:07:31;;;;;;;4.43;1.77;;;19.80;46.00;;;;;;4972115;28;20527;-71
2021/03/29 00:09:57;;;;;;;4.70;1.47;;;19.90;45.90;;;;;;4975659;28;20492;-72
2021/03/29 00:12:23;;;;;;;3.37;1.80;;;19.90;45.90;;;;;;4927415;28;21116;-70
2021/03/29 00:14:49;;;;;;;3.67;2.10;;;19.90;46.00;;;;;;4961459;28;21288;-70
2021/03/29 00:17:15;;;;;;;4.53;1.67;;;19.80;46.00;;;;;;4965775;28;20489;-71
2021/03/29 00:19:42;;;;;;;3.87;1.70;;;19.80;46.10;;;;;;4957510;28;20481;-70
2021/03/29 00:22:08;;;;;;;3.10;1.60;;;19.80;46.10;;;;;;4964411;28;20531;-71
2021/03/29 00:24:35;;;;;;;4.90;1.40;;;19.80;46.10;;;;;;4962887;28;20474;-70
2021/03/29 00:27:01;;;;;;;3.13;1.50;;;19.80;45.90;;;;;;4966126;28;20497;-71
2021/03/29 00:29:27;;;;;;;5.40;1.70;;;19.90;45.90;;;;;;4964759;28;21100;-71
2021/03/29 00:31:53;;;;;;;1.53;1.33;;;19.90;45.90;;;;;;4957911;28;20493;-69
2021/03/29 00:34:20;;;;;;;4.07;1.60;;;19.90;45.80;;;;;;4966245;28;20493;-70
2021/03/29 00:36:46;;;;;;;2.47;1.43;;;19.90;46.00;;;;;;4962862;28;20498;-71
2021/03/29 00:39:12;;;;;;;2.13;1.20;;;19.90;46.00;;;;;;4965827;28;20940;-70
2021/03/29 00:41:39;;;;;;;1.83;1.73;;;19.80;46.10;;;;;;4961943;28;21206;-70
2021/03/29 00:44:06;;;;;;;5.30;1.77;;;19.80;46.20;;;;;;4962048;28;20478;-70
2021/03/29 00:46:32;;;;;;;4.50;1.37;;;19.70;46.10;;;;;;4964041;28;20496;-70
2021/03/29 00:48:58;;;;;;;1.40;1.30;;;19.70;46.40;;;;;;4965204;28;20931;-71
2021/03/29 00:51:27;;;;;;;1.37;1.20;;;19.70;46.30;;;;;;4966506;28;20998;-70
2021/03/29 00:53:54;;;;;;;1.90;1.47;;;19.70;46.30;;;;;;4962196;28;20482;-70
2021/03/29 00:56:21;;;;;;;1.40;1.30;;;19.70;46.40;;;;;;4963921;28;20922;-70
2021/03/29 00:58:48;;;;;;;3.47;1.20;;;19.70;46.30;;;;;;4964116;28;21013;-70
2021/03/29 01:01:16;;;;;;;4.60;1.20;;;19.70;46.10;;;;;;4969618;28;20477;-70
2021/03/29 01:03:42;;;;;;;3.00;1.47;;;19.80;46.10;;;;;;4971954;28;20926;-71
2021/03/29 01:06:10;;;;;;;4.00;1.60;;;19.80;46.10;;;;;;4970491;28;20496;-70
2021/03/29 01:08:38;;;;;;;3.03;1.40;;;19.80;46.00;;;;;;4973163;28;20496;-71
2021/03/29 01:11:05;;;;;;;1.47;1.37;;;19.90;46.00;;;;;;4972881;28;20469;-70
2021/03/29 01:13:31;;;;;;;1.93;1.40;;;19.80;45.90;;;;;;4969486;28;20497;-71
2021/03/29 01:15:58;;;;;;;1.00;1.00;;;19.80;46.00;;;;;;4970732;28;20850;-71
2021/03/29 01:18:24;;;;;;;4.20;1.17;;;19.70;45.90;;;;;;4970380;28;20555;-71
2021/03/29 01:21:00;;;;;;;1.20;1.10;;;19.70;45.90;;;;;;4970406;28;20501;-70
2021/03/29 01:23:27;;;;;;;1.97;1.00;;;19.70;46.10;;;;;;4945725;28;20489;-70
2021/03/29 01:25:55;;;;;;;4.37;1.70;;;19.70;46.10;;;;;;4961648;28;21143;-70
2021/03/29 01:28:22;;;;;;;7.20;1.30;;;19.70;46.10;;;;;;4971603;28;20490;-70
2021/03/29 01:30:48;;;;;;;6.40;1.70;;;19.70;46.10;;;;;;4971034;28;20950;-70
2021/03/29 01:33:14;;;;;;;2.90;1.40;;;19.70;46.20;;;;;;4971873;28;20498;-70
2021/03/29 01:35:42;;;;;;;3.17;1.23;;;19.70;46.00;;;;;;4972447;28;20869;-71
2021/03/29 01:38:08;;;;;;;2.77;1.33;;;19.70;46.00;;;;;;4972077;28;20489;-71
2021/03/29 01:40:35;;;;;;;3.10;1.47;;;19.70;45.80;;;;;;4972372;28;20496;-70
2021/03/29 01:43:02;;;;;;;2.60;1.30;;;19.70;45.90;;;;;;4973193;28;20552;-71
2021/03/29 01:45:29;;;;;;;1.37;1.27;;;19.70;45.90;;;;;;4973750;28;20493;-71
2021/03/29 01:47:55;;;;;;;2.93;1.30;;;19.70;45.80;;;;;;4972091;28;20494;-70
2021/03/29 01:50:23;;;;;;;3.13;1.20;;;19.70;45.80;;;;;;4969297;28;20494;-70
2021/03/29 01:52:49;;;;;;;4.57;1.20;;;19.70;45.70;;;;;;4972776;28;20489;-71
2021/03/29 01:55:16;;;;;;;7.80;1.30;;;19.70;45.80;;;;;;4969530;28;20564;-71
2021/03/29 01:57:42;;;;;;;2.67;1.70;;;19.70;45.80;;;;;;4971297;28;21020;-71
2021/03/29 02:00:10;;;;;;;2.13;1.93;;;19.70;45.70;;;;;;4973025;28;20870;-71
2021/03/29 02:02:37;;;;;;;1.57;1.17;;;19.70;45.60;;;;;;4972199;28;20494;-71
2021/03/29 02:05:07;;;;;;;2.37;1.40;;;19.70;45.60;;;;;;4970646;28;20481;-69
2021/03/29 02:07:34;;;;;;;6.00;1.73;;;19.70;45.40;;;;;;4972298;28;20489;-70
2021/03/29 02:10:00;;;;;;;2.90;1.20;;;19.80;45.50;;;;;;4973092;28;21221;-71
2021/03/29 02:12:26;;;;;;;1.73;1.33;;;19.80;45.40;;;;;;4971615;28;21010;-71
2021/03/29 02:14:53;;;;;;;1.67;1.50;;;19.70;45.30;;;;;;4970212;28;20501;-70
2021/03/29 02:17:19;;;;;;;3.37;1.10;;;19.70;45.40;;;;;;4971410;28;20512;-71
2021/03/29 02:19:46;;;;;;;1.83;1.37;;;19.70;45.50;;;;;;4970946;28;20870;-71
2021/03/29 02:22:12;;;;;;;3.07;1.50;;;19.70;45.50;;;;;;4970939;28;20485;-71
2021/03/29 02:24:38;;;;;;;4.50;2.67;;;19.70;45.50;;;;;;4971196;28;20500;-70
2021/03/29 02:27:05;;;;;;;3.43;1.37;;;19.70;45.50;;;;;;4970941;28;20497;-70
2021/03/29 02:29:31;;;;;;;1.50;1.47;;;19.70;45.40;;;;;;4973285;28;20486;-70
2021/03/29 02:31:57;;;;;;;3.90;1.73;;;19.70;45.30;;;;;;4971590;28;21094;-70
2021/03/29 02:34:24;;;;;;;3.13;1.73;;;19.80;45.20;;;;;;4970474;28;20497;-70
2021/03/29 02:36:51;;;;;;;1.30;1.20;;;19.80;45.10;;;;;;4973422;28;20553;-70
2021/03/29 02:39:18;;;;;;;3.20;1.03;;;19.80;45.10;;;;;;4968694;28;21654;-70
2021/03/29 02:41:45;;;;;;;2.20;0.97;;;19.80;45.00;;;;;;4972718;28;20497;-70
2021/03/29 02:44:11;;;;;;;1.47;1.37;;;19.80;45.10;;;;;;4969820;28;20508;-70
2021/03/29 02:46:37;;;;;;;1.77;1.67;;;19.80;45.10;;;;;;4970977;28;20482;-70
2021/03/29 02:49:04;;;;;;;1.57;1.20;;;19.80;45.10;;;;;;4972622;28;20485;-70
2021/03/29 02:51:31;;;;;;;3.13;1.50;;;19.80;45.00;;;;;;4962352;28;20547;-71
2021/03/29 02:53:59;;;;;;;1.30;1.20;;;19.80;44.90;;;;;;4945391;28;20493;-70
2021/03/29 02:56:26;;;;;;;1.47;1.37;;;19.90;44.90;;;;;;4959713;28;20861;-71
2021/03/29 02:58:53;;;;;;;1.93;1.30;;;19.90;44.80;;;;;;4969514;28;20486;-71
2021/03/29 03:01:22;;;;;;;2.13;1.50;;;19.90;44.70;;;;;;4970259;28;20495;-71
2021/03/29 03:03:49;;;;;;;1.60;1.30;;;19.90;44.80;;;;;;4972470;28;21139;-70
2021/03/29 03:06:15;;;;;;;2.90;1.70;;;19.80;44.80;;;;;;4975556;28;20469;-71
2021/03/29 03:08:41;;;;;;;1.77;1.03;;;19.80;44.90;;;;;;4974037;28;20496;-71
2021/03/29 03:11:09;;;;;;;3.33;1.40;;;19.80;45.00;;;;;;4975070;28;20484;-70
2021/03/29 03:13:36;;;;;;;1.53;1.30;;;19.80;45.10;;;;;;4972767;28;20486;-71
2021/03/29 03:16:03;;;;;;;3.23;1.23;;;19.80;45.10;;;;;;4974635;28;20473;-71
2021/03/29 03:18:29;;;;;;;2.70;2.00;;;19.80;44.20;;;;;;4975725;28;20569;-70
2021/03/29 03:20:55;;;;;;;8.30;1.83;;;19.80;44.90;;;;;;4973639;28;20486;-70
2021/03/29 03:23:21;;;;;;;2.00;0.97;;;19.90;44.80;;;;;;4974371;28;20498;-70
2021/03/29 03:25:49;;;;;;;4.20;1.47;;;19.90;44.80;;;;;;4973574;28;20535;-70
2021/03/29 03:28:18;;;;;;;3.73;1.33;;;19.90;44.70;;;;;;4972945;28;20496;-69
2021/03/29 03:30:45;;;;;;;5.13;1.90;;;19.80;44.70;;;;;;4975501;28;20493;-70
2021/03/29 03:33:13;;;;;;;5.50;1.40;;;19.80;44.80;;;;;;4973201;28;21438;-70
2021/03/29 03:35:40;;;;;;;2.30;1.90;;;19.80;44.90;;;;;;4965570;28;21099;-70
2021/03/29 03:38:09;;;;;;;3.60;2.00;;;19.80;44.90;;;;;;4966222;28;20865;-71
2021/03/29 03:40:36;;;;;;;3.10;1.70;;;19.80;44.80;;;;;;4972006;28;20497;-70
2021/03/29 03:43:03;;;;;;;2.30;1.20;;;19.90;44.90;;;;;;4973563;28;20493;-70
2021/03/29 03:45:32;;;;;;;5.20;2.20;;;19.90;44.90;;;;;;4972634;28;20565;-71
2021/03/29 03:47:58;;;;;;;5.17;1.90;;;19.90;44.80;;;;;;4968015;28;21067;-71
2021/03/29 03:50:25;;;;;;;3.07;1.67;;;19.80;44.80;;;;;;4961861;28;20576;-70
2021/03/29 03:52:51;;;;;;;1.93;1.50;;;19.80;44.90;;;;;;4974739;28;20493;-71
2021/03/29 03:55:17;;;;;;;3.60;1.63;;;19.80;45.00;;;;;;4972355;28;20475;-71
2021/03/29 03:57:43;;;;;;;3.90;1.80;;;19.70;45.00;;;;;;4963037;28;20998;-70
2021/03/29 04:00:11;;;;;;;3.53;1.97;;;19.70;45.10;;;;;;4961944;28;21002;-70
2021/03/29 04:02:38;;;;;;;5.23;1.90;;;19.70;45.10;;;;;;4973276;28;20488;-68
2021/03/29 04:05:06;;;;;;;3.47;1.67;;;19.70;45.20;;;;;;4972349;28;20499;-70
2021/03/29 04:07:32;;;;;;;1.43;1.20;;;19.70;45.10;;;;;;4964083;28;20624;-70
2021/03/29 04:10:02;;;;;;;4.33;1.67;;;19.70;45.10;;;;;;4976041;28;20476;-71
2021/03/29 04:12:29;;;;;;;6.20;1.60;;;19.70;45.00;;;;;;4975175;28;20597;-70
2021/03/29 04:14:55;;;;;;;1.23;1.13;;;19.80;45.00;;;;;;4971981;28;20547;-70
2021/03/29 04:17:21;;;;;;;4.50;1.37;;;19.80;45.10;;;;;;4973408;28;20865;-71
2021/03/29 04:19:48;;;;;;;2.20;1.93;;;19.80;44.90;;;;;;4974273;28;20841;-71
2021/03/29 04:22:14;;;;;;;3.83;1.20;;;19.80;45.00;;;;;;4972363;28;20492;-70
2021/03/29 04:24:40;;;;;;;1.77;1.03;;;19.80;45.00;;;;;;4972990;28;20493;-71
2021/03/29 04:27:07;;;;;;;5.40;2.03;;;19.80;44.90;;;;;;4977078;28;20490;-70
2021/03/29 04:29:33;;;;;;;6.70;1.60;;;19.80;44.90;;;;;;4960097;28;20536;-71
2021/03/29 04:31:59;;;;;;;3.60;1.17;;;19.80;44.80;;;;;;4974655;28;20500;-71
2021/03/29 04:34:26;;;;;;;4.13;1.90;;;19.80;44.90;;;;;;4960806;28;20490;-70
2021/03/29 04:36:52;;;;;;;3.73;1.30;;;19.80;44.80;;;;;;4973220;28;20552;-71
2021/03/29 04:39:19;;;;;;;7.27;1.90;;;19.90;44.80;;;;;;4961618;28;20497;-71
2021/03/29 04:41:45;;;;;;;2.03;1.83;;;19.90;44.80;;;;;;4972906;28;20498;-71
2021/03/29 04:44:11;;;;;;;2.17;1.47;;;19.80;44.90;;;;;;4972884;28;20489;-70
2021/03/29 04:46:37;;;;;;;4.93;1.83;;;19.80;45.00;;;;;;4974291;28;20494;-71
2021/03/29 04:49:03;;;;;;;4.30;1.60;;;19.80;45.20;;;;;;4972563;28;20516;-71
2021/03/29 04:51:29;;;;;;;5.37;2.13;;;19.70;45.00;;;;;;4961491;28;20491;-71
2021/03/29 04:53:56;;;;;;;4.47;2.20;;;19.70;45.10;;;;;;4973559;28;20489;-71
2021/03/29 04:56:23;;;;;;;2.00;1.30;;;19.70;45.20;;;;;;4968821;28;20497;-71
2021/03/29 04:58:49;;;;;;;1.67;1.57;;;19.60;45.30;;;;;;4970547;28;20492;-71
2021/03/29 05:01:15;;;;;;;2.73;1.60;;;19.60;45.30;;;;;;4971913;28;20532;-69
2021/03/29 05:03:41;;;;;;;3.50;2.00;;;19.60;45.30;;;;;;4961859;28;20493;-70
2021/03/29 05:06:07;;;;;;;2.40;1.47;;;19.60;45.20;;;;;;4972438;28;20481;-69
2021/03/29 05:08:33;;;;;;;8.00;2.33;;;19.60;45.10;;;;;;4972527;28;20497;-70
2021/03/29 05:11:01;;;;;;;1.97;1.50;;;19.70;45.20;;;;;;4974193;28;20489;-70
2021/03/29 05:13:27;;;;;;;4.87;2.00;;;19.60;45.00;;;;;;4943434;28;20482;-71
2021/03/29 05:15:53;;;;;;;1.87;1.43;;;19.70;45.00;;;;;;4974041;28;20501;-71
2021/03/29 05:18:19;;;;;;;4.43;1.60;;;19.80;45.20;;;;;;4974040;28;21009;-70
2021/03/29 05:20:45;;;;;;;5.97;2.10;;;19.80;45.10;;;;;;4972243;28;20912;-70
2021/03/29 05:23:12;;;;;;;5.17;1.77;;;19.80;45.00;;;;;;4971854;28;20520;-70
2021/03/29 05:25:38;;;;;;;5.70;3.20;;;19.70;45.10;;;;;;4971213;28;20503;-71
2021/03/29 05:28:05;;;;;;;3.13;1.73;;;19.80;45.10;;;;;;4971781;28;20505;-71
2021/03/29 05:30:32;;;;;;;4.60;2.50;;;19.70;45.00;;;;;;4962322;28;20927;-71
2021/03/29 05:32:58;;;;;;;5.87;1.73;;;19.70;45.00;;;;;;4974366;28;21020;-69
2021/03/29 05:35:24;;;;;;;4.57;1.60;;;19.70;45.10;;;;;;4962769;28;20629;-70
2021/03/29 05:37:50;;;;;;;3.27;1.70;;;19.70;45.10;;;;;;4977500;28;20486;-69
2021/03/29 05:40:17;;;;;;;3.77;1.57;;;19.70;45.00;;;;;;4961011;28;20491;-68
2021/03/29 05:42:44;;;;;;;1.67;1.57;;;19.70;45.10;;;;;;4971181;28;20489;-70
2021/03/29 05:45:11;;;;;;;3.53;2.10;;;19.70;44.90;;;;;;4965164;28;20985;-71
2021/03/29 05:47:38;;;;;;;7.90;1.30;;;19.60;45.00;;;;;;4967569;28;20492;-71
2021/03/29 05:50:05;;;;;;;2.67;1.07;;;19.60;45.10;;;;;;4969786;28;20485;-71
2021/03/29 05:52:32;;;;;;;3.13;1.20;;;19.50;45.20;;;;;;4967641;28;20496;-71
2021/03/29 05:54:58;;;;;;;2.40;1.63;;;19.50;45.10;;;;;;4948029;28;20484;-70
2021/03/29 05:57:24;;;;;;;1.53;1.43;;;19.50;45.40;;;;;;4965570;28;20474;-70
2021/03/29 05:59:50;;;;;;;6.60;1.60;;;19.50;45.10;;;;;;4961947;28;20481;-70
2021/03/29 06:02:28;;;;;;;4.20;1.70;;;19.40;45.30;;;;;;4968320;28;21353;-71
2021/03/29 06:04:54;;;;;;;4.30;1.80;;;19.50;45.40;;;;;;4963827;28;20532;-71
2021/03/29 06:07:21;;;;;;;4.70;2.10;;;19.50;45.10;;;;;;4967316;28;21360;-70
2021/03/29 06:09:48;;;;;;;1.43;1.30;;;19.60;45.00;;;;;;4967312;28;20486;-69
2021/03/29 06:12:15;;;;;;;4.17;2.03;;;19.70;45.00;;;;;;4970688;28;20477;-71
2021/03/29 06:14:44;;;;;;;1.20;1.10;;;19.70;45.00;;;;;;4966649;28;20486;-70
2021/03/29 06:17:10;;;;;;;2.90;1.33;;;19.70;44.90;;;;;;4969262;28;20904;-70
2021/03/29 06:19:48;;;;;;;3.70;1.43;;;19.80;45.00;;;;;;4966983;28;20490;-71
2021/03/29 06:22:17;;;;;;;1.20;1.20;;;19.80;45.00;;;;;;4968046;28;20500;-70
2021/03/29 06:25:08;;;;;;;2.30;1.40;;;19.70;44.90;;;;;;4967673;28;20484;-70
2021/03/29 06:27:40;;;;;;;4.63;1.53;;;19.70;45.00;;;;;;4966592;28;20578;-70
2021/03/29 06:30:17;;;;;;;1.43;1.10;;;19.70;45.10;;;;;;4968115;28;20488;-71
2021/03/29 06:32:57;;;;;;;2.20;0.90;;;19.80;45.10;;;;;;4967994;28;20548;-71
2021/03/29 06:35:26;;;;;;;1.07;1.07;;;19.80;45.00;;;;;;4969136;28;20839;-70
2021/03/29 06:37:52;;;;;;;5.60;1.10;;;19.90;44.90;;;;;;4969682;28;20494;-70
2021/03/29 06:40:18;;;;;;;2.77;1.10;;;20.00;44.70;;;;;;4973066;28;21098;-68
2021/03/29 06:42:45;;;;;;;1.03;0.90;;;20.00;44.60;;;;;;4974168;28;20726;-67
2021/03/29 06:45:12;;;;;;;1.10;1.10;;;20.00;44.80;;;;;;4971026;28;20497;-71
2021/03/29 06:47:38;;;;;;;1.20;1.20;;;19.90;44.80;;;;;;4971984;28;20493;-69
2021/03/29 06:50:05;;;;;;;2.00;0.80;;;19.90;44.80;;;;;;4972454;28;20481;-70
2021/03/29 06:52:33;;;;;;;2.33;1.57;;;19.90;44.90;;;;;;4972597;28;20493;-70
2021/03/29 06:55:17;;;;;;;1.40;1.03;;;19.90;45.00;;;;;;4942225;28;21321;-71
2021/03/29 06:57:44;;;;;;;1.67;1.17;;;19.80;45.10;;;;;;4972617;28;21297;-70
2021/03/29 07:00:13;;;;;;;2.93;1.23;;;19.80;45.70;;;;;;4951453;28;20505;-69
2021/03/29 07:02:40;;;;;;;4.40;1.20;;;19.90;45.90;;;;;;4970362;28;20473;-71
2021/03/29 07:05:07;;;;;;;2.70;1.23;;;19.80;45.00;;;;;;4961601;28;22147;-70
2021/03/29 07:07:36;;;;;;;2.03;1.13;;;19.90;45.10;;;;;;4973076;28;20496;-71
2021/03/29 07:10:03;;;;;;;2.63;1.40;;;19.90;45.10;;;;;;4972678;28;21479;-71
2021/03/29 07:12:33;;;;;;;1.27;1.00;;;20.00;45.10;;;;;;4973624;28;20474;-71
2021/03/29 07:14:59;;;;;;;1.20;1.20;;;20.00;45.00;;;;;;4959514;28;20476;-71
2021/03/29 07:17:26;;;;;;;2.63;1.17;;;20.00;45.00;;;;;;4972146;28;20550;-72
2021/03/29 07:19:53;;;;;;;2.90;1.47;;;20.00;44.90;;;;;;4972427;28;21623;-70
2021/03/29 07:22:19;;;;;;;1.70;1.13;;;20.00;45.00;;;;;;4970651;28;20482;-70
2021/03/29 07:24:46;;;;;;;1.90;1.10;;;20.00;45.00;;;;;;4969616;28;20494;-71
2021/03/29 07:27:12;;;;;;;3.27;1.30;;;20.00;45.10;;;;;;4973886;28;20531;-70
2021/03/29 07:29:45;;;;;;;1.13;0.93;;;20.00;45.30;;;;;;4971195;28;21024;-71
2021/03/29 07:32:27;;;;;;;2.80;1.40;;;19.90;45.10;;;;;;4968064;28;20488;-70
2021/03/29 07:34:53;;;;;;;3.93;1.13;;;19.90;45.10;;;;;;4969494;28;20465;-71
2021/03/29 07:37:34;;;;;;;3.10;1.20;;;19.90;45.20;;;;;;4963269;28;20524;-70
2021/03/29 07:40:03;;;;;;;1.37;1.27;;;19.90;45.20;;;;;;4966128;28;20490;-70
2021/03/29 07:42:38;;;;;;;1.30;1.20;;;19.80;45.20;;;;;;4973753;28;20589;-70
2021/03/29 07:45:08;;;;;;;5.10;1.23;;;19.80;46.10;;;;;;4955836;28;20575;-70
2021/03/29 07:47:48;;;;;;;1.63;1.47;;;19.90;45.40;;;;;;4971413;28;20878;-70
2021/03/29 07:50:20;;;;;;;1.33;1.17;;;19.80;45.30;;;;;;4973324;28;20493;-70
2021/03/29 07:52:50;;;;;;;4.37;1.47;;;19.80;45.30;;;;;;4969785;28;20492;-69
2021/03/29 07:55:21;;;;;;;2.10;1.33;;;19.80;45.40;;;;;;4969986;28;20473;-70
2021/03/29 07:58:18;;;;;;;1.40;1.07;;;19.80;45.30;;;;;;4971521;28;20598;-70
2021/03/29 08:00:58;;;;;;;1.30;1.20;;;19.80;45.40;;;;;;4875608;29;20521;-70
2021/03/29 08:03:59;;;;;;;1.90;1.53;;;19.80;45.40;;;;;;4952529;28;20955;-70
2021/03/29 08:06:38;;;;;;;1.23;1.23;;;19.80;45.50;;;;;;4960321;28;20524;-69
2021/03/29 08:09:05;;;;;;;3.83;1.30;;;19.80;45.30;;;;;;4965897;28;20612;-68
2021/03/29 08:11:58;;;;;;;0.90;0.90;;;19.90;45.50;;;;;;4972105;28;20485;-70
2021/03/29 08:14:32;;;;;;;1.43;1.30;;;19.90;45.40;;;;;;4966125;28;20473;-71
2021/03/29 08:16:58;;;;;;;1.73;1.10;;;19.90;45.30;;;;;;4969810;28;20492;-70
2021/03/29 08:19:25;;;;;;;1.13;1.00;;;20.00;45.30;;;;;;4974077;28;20934;-71
2021/03/29 08:21:52;;;;;;;2.60;1.57;;;20.00;46.10;;;;;;4978194;28;21395;-70
2021/03/29 08:24:20;;;;;;;2.20;1.30;;;20.00;45.40;;;;;;4970547;28;21115;-70
2021/03/29 08:26:47;;;;;;;2.93;1.40;;;19.90;45.40;;;;;;4972022;28;20477;-70
2021/03/29 08:29:20;;;;;;;2.77;1.13;;;19.90;45.70;;;;;;4970802;28;20481;-70
2021/03/29 08:32:10;;;;;;;4.37;1.63;;;19.80;45.50;;;;;;4970629;28;20596;-71
2021/03/29 08:34:41;;;;;;;2.80;1.50;;;19.80;45.50;;;;;;4959768;28;20981;-70
2021/03/29 08:37:07;;;;;;;4.40;1.17;;;19.90;45.50;;;;;;4970398;28;20481;-70
2021/03/29 08:39:34;;;;;;;1.43;1.20;;;19.90;45.60;;;;;;4972510;28;20493;-70
2021/03/29 08:42:00;;;;;;;1.87;1.30;;;19.90;45.50;;;;;;4963000;28;20468;-70
2021/03/29 08:44:28;;;;;;;3.20;1.37;;;20.00;45.40;;;;;;4969403;28;21013;-68
2021/03/29 08:46:54;;;;;;;2.93;1.23;;;20.10;45.30;;;;;;4972997;28;20488;-71
2021/03/29 08:49:20;;;;;;;2.20;1.30;;;20.20;45.20;;;;;;4968940;28;20482;-71
2021/03/29 08:51:46;;;;;;;0.93;0.93;;;20.20;45.00;;;;;;4969596;28;20481;-70
2021/03/29 08:54:13;;;;;;;2.30;1.33;;;20.30;44.90;;;;;;4969774;28;21027;-70
2021/03/29 08:56:39;;;;;;;1.27;1.00;;;20.30;44.90;;;;;;4972096;28;20496;-70
2021/03/29 08:59:06;;;;;;;1.70;0.83;;;20.30;45.00;;;;;;4968430;28;20478;-69
2021/03/29 09:01:33;;;;;;;2.33;1.10;;;20.30;45.00;;;;;;4970482;28;20506;-69
2021/03/29 09:04:02;;;;;;;4.30;1.13;;;20.20;45.10;;;;;;4956714;28;20498;-71
2021/03/29 09:06:28;;;;;;;1.47;1.10;;;20.30;45.10;;;;;;4969262;28;20540;-69
2021/03/29 09:08:55;;;;;;;1.77;1.60;;;20.30;45.00;;;;;;4970897;28;20628;-70
2021/03/29 09:11:21;;;;;;;1.87;1.57;;;20.40;44.90;;;;;;4967896;28;20501;-71
2021/03/29 09:13:47;;;;;;;2.37;0.97;;;20.40;44.80;;;;;;4965964;28;20502;-70
2021/03/29 09:16:14;;;;;;;2.10;1.20;;;20.50;44.80;;;;;;4969238;28;20597;-71
2021/03/29 09:18:40;;;;;;;1.20;1.10;;;20.50;44.80;;;;;;4969179;28;20490;-69
2021/03/29 09:21:07;;;;;;;1.30;1.00;;;20.40;44.70;;;;;;4973374;28;20536;-71
2021/03/29 09:23:33;;;;;;;2.57;1.50;;;20.40;44.80;;;;;;4972801;28;20993;-71
2021/03/29 09:26:02;;;;;;;2.20;1.60;;;20.40;44.90;;;;;;4975953;28;20493;-71
2021/03/29 09:28:39;;;;;;;3.53;1.47;;;20.30;45.10;;;;;;4960911;28;21322;-71
2021/03/29 09:31:08;;;;;;;6.93;2.00;;;20.30;45.20;;;;;;4960141;28;20555;-72
2021/03/29 09:33:34;;;;;;;2.37;1.60;;;20.20;45.30;;;;;;4967279;28;22172;-71
2021/03/29 09:36:08;;;;;;;2.97;1.43;;;20.20;45.40;;;;;;4969324;28;21199;-70
2021/03/29 09:38:35;;;;;;;3.30;1.30;;;20.10;45.30;;;;;;4942299;28;20558;-71
2021/03/29 09:41:02;;;;;;;1.70;1.07;;;20.10;45.50;;;;;;4962603;28;20488;-68
2021/03/29 09:43:28;;;;;;;3.47;2.33;;;20.20;45.50;;;;;;4965865;28;20590;-70
2021/03/29 09:46:03;;;;;;;7.33;1.50;;;20.20;45.40;;;;;;4959018;28;20489;-70
2021/03/29 09:48:31;;;;;;;6.33;1.20;;;20.20;45.30;;;;;;4969890;28;20497;-70
2021/03/29 09:50:57;;;;;;;1.53;1.30;;;20.30;45.30;;;;;;4969593;28;20553;-70
2021/03/29 09:53:32;;;;;;;2.07;1.23;;;20.30;45.20;;;;;;4965183;28;20623;-70
2021/03/29 09:55:58;;;;;;;4.73;1.60;;;20.30;45.20;;;;;;4971127;28;20493;-71
2021/03/29 09:58:26;;;;;;;3.53;1.10;;;20.30;45.20;;;;;;4969518;28;20493;-70
2021/03/29 10:00:53;;;;;;;1.97;1.10;;;20.30;45.20;;;;;;4969379;28;20528;-70
2021/03/29 10:03:20;;;;;;;1.50;1.40;;;20.30;45.30;;;;;;4968411;28;21107;-70
2021/03/29 10:05:46;;;;;;;1.70;1.50;;;20.20;45.30;;;;;;4958327;28;20925;-70
2021/03/29 10:08:23;;;;;;;1.40;1.30;;;20.20;45.40;;;;;;4969746;28;20496;-70
2021/03/29 10:10:58;;;;;;;1.80;1.47;;;20.20;45.40;;;;;;4969770;28;20492;-69
2021/03/29 10:13:31;;;;;;;2.10;1.90;;;20.20;45.50;;;;;;4964403;28;20489;-70
2021/03/29 10:15:58;;;;;;;3.03;1.97;;;20.20;45.60;;;;;;4967516;28;20559;-70
2021/03/29 10:18:30;;;;;;;1.30;1.20;;;20.10;45.70;;;;;;4966966;28;20493;-70
2021/03/29 10:21:02;;;;;;;1.30;1.20;;;20.10;45.70;;;;;;4970006;28;20492;-70
2021/03/29 10:23:29;;;;;;;2.23;1.63;;;20.10;45.80;;;;;;4965138;28;20493;-70
2021/03/29 10:26:22;;;;;;;1.10;1.07;;;20.10;45.80;;;;;;4967957;28;21060;-70
2021/03/29 10:28:52;;;;;;;3.10;1.70;;;20.10;45.90;;;;;;4959285;28;20936;-70
2021/03/29 10:31:18;;;;;;;1.10;1.10;;;20.10;45.90;;;;;;4972110;28;20501;-69
2021/03/29 10:33:45;;;;;;;1.87;1.43;;;20.10;46.00;;;;;;4965592;28;21599;-70
2021/03/29 10:36:14;;;;;;;4.83;1.10;;;20.10;46.10;;;;;;4957801;28;20856;-70
2021/03/29 10:38:41;;;;;;;2.47;1.13;;;20.00;46.90;;;;;;4967172;28;20493;-70
2021/03/29 10:41:07;;;;;;;2.30;1.27;;;20.00;46.20;;;;;;4969463;28;20927;-70
2021/03/29 10:43:34;;;;;;;2.40;1.30;;;20.00;46.10;;;;;;4957258;28;20478;-70
2021/03/29 10:46:00;;;;;;;5.20;1.50;;;20.10;46.10;;;;;;4969147;28;20574;-70
2021/03/29 10:48:26;;;;;;;1.50;1.33;;;20.10;46.00;;;;;;4959248;28;20474;-70
2021/03/29 10:50:52;;;;;;;1.70;1.40;;;20.20;46.00;;;;;;4967737;28;20489;-70
2021/03/29 10:53:18;;;;;;;1.90;1.37;;;20.20;46.00;;;;;;4967925;28;20536;-70
2021/03/29 10:55:45;;;;;;;1.27;1.23;;;20.30;45.90;;;;;;4968489;28;20485;-70
2021/03/29 10:58:11;;;;;;;3.33;1.53;;;20.30;45.90;;;;;;4969397;28;20500;-70
2021/03/29 11:00:38;;;;;;;3.47;1.70;;;20.30;46.30;;;;;;4970452;28;20505;-70
2021/03/29 11:03:04;;;;;;;2.50;1.90;;;20.20;46.40;;;;;;4960782;28;20481;-70
2021/03/29 11:05:31;;;;;;;2.70;1.90;;;20.20;46.30;;;;;;4959526;28;21121;-70
2021/03/29 11:07:57;;;;;;;1.77;1.60;;;20.10;46.40;;;;;;4971018;28;20500;-70
2021/03/29 11:10:23;;;;;;;2.67;2.10;;;20.10;46.70;;;;;;4965442;28;20489;-70
2021/03/29 11:12:49;;;;;;;1.87;1.63;;;20.10;47.10;;;;;;4965024;28;20481;-70
2021/03/29 11:15:16;;;;;;;2.47;1.90;;;20.00;46.70;;;;;;4966217;28;21008;-70
2021/03/29 11:17:43;;;;;;;3.83;2.10;;;20.00;47.10;;;;;;4967058;28;20485;-70
2021/03/29 11:20:09;;;;;;;2.07;1.40;;;20.00;47.10;;;;;;4966866;28;20477;-70
2021/03/29 11:22:35;;;;;;;3.23;2.40;;;20.00;47.10;;;;;;4969437;28;20489;-70
2021/03/29 11:25:02;;;;;;;3.10;1.90;;;20.00;47.10;;;;;;4950564;28;20484;-68
2021/03/29 11:27:28;;;;;;;6.13;2.50;;;20.00;47.00;;;;;;4972670;28;20535;-70
2021/03/29 11:29:54;;;;;;;8.20;2.57;;;20.00;47.10;;;;;;4971595;28;20530;-70
2021/03/29 11:32:20;;;;;;;4.17;2.30;;;20.00;47.20;;;;;;4969891;28;20485;-69
2021/03/29 11:34:47;;;;;;;3.30;2.10;;;20.00;47.00;;;;;;4969265;28;20485;-70
2021/03/29 11:37:13;;;;;;;2.33;2.13;;;20.00;47.00;;;;;;4972497;28;21054;-70
2021/03/29 11:39:39;;;;;;;3.00;1.70;;;20.00;46.80;;;;;;4973014;28;20481;-70
2021/03/29 11:42:06;;;;;;;3.13;1.93;;;20.00;46.90;;;;;;4964642;28;20480;-70
2021/03/29 11:44:32;;;;;;;2.47;1.77;;;20.10;47.00;;;;;;4960352;28;20528;-70
2021/03/29 11:46:58;;;;;;;2.07;1.77;;;20.10;47.10;;;;;;4972475;28;20951;-70
2021/03/29 11:49:24;;;;;;;3.17;2.87;;;20.10;47.00;;;;;;4971786;28;20496;-70
2021/03/29 11:51:51;;;;;;;2.57;2.37;;;20.20;46.80;;;;;;4970635;28;20556;-70
2021/03/29 11:54:17;;;;;;;2.47;2.03;;;20.20;46.80;;;;;;4968699;28;20864;-69
2021/03/29 11:56:43;;;;;;;3.90;1.90;;;20.20;46.80;;;;;;4970676;28;20863;-70
2021/03/29 11:59:10;;;;;;;3.97;2.67;;;20.20;47.10;;;;;;4973023;28;21499;-70
2021/03/29 12:01:42;;;;;;;3.53;1.93;;;20.20;47.20;;;;;;4973363;28;20702;-70
2021/03/29 12:04:12;;;;;;;2.37;1.80;;;20.20;47.00;;;;;;4967403;28;20473;-70
2021/03/29 12:06:43;;;;;;;2.90;1.90;;;20.20;47.00;;;;;;4971505;28;20559;-70
2021/03/29 12:09:18;;;;;;;3.13;1.70;;;20.10;47.60;;;;;;4959516;28;20496;-69
2021/03/29 12:14:31;;;;;;;4.33;3.00;;;20.20;47.10;;;;;;4965519;28;20477;-69
2021/03/29 12:16:58;;;;;;;4.30;2.00;;;20.30;47.10;;;;;;4968892;28;20473;-70
2021/03/29 12:19:24;;;;;;;2.33;2.03;;;20.30;46.90;;;;;;4970999;28;20497;-70
2021/03/29 12:21:52;;;;;;;1.60;1.50;;;20.30;46.90;;;;;;4969288;28;20497;-68
2021/03/29 12:24:21;;;;;;;1.97;1.77;;;20.30;46.90;;;;;;4967827;28;21655;-69
2021/03/29 12:26:48;;;;;;;3.00;1.50;;;20.30;46.90;;;;;;4972172;28;20542;-68
2021/03/29 12:29:16;;;;;;;4.50;1.83;;;20.30;46.90;;;;;;4970067;28;20573;-70
2021/03/29 12:31:42;;;;;;;2.80;1.87;;;20.30;47.00;;;;;;4972359;28;20488;-70
2021/03/29 12:34:09;;;;;;;4.53;1.63;;;20.30;47.20;;;;;;4969107;28;20545;-70
2021/03/29 12:36:39;;;;;;;1.60;1.43;;;20.30;47.30;;;;;;4970586;28;20493;-69
2021/03/29 12:39:09;;;;;;;3.70;2.47;;;20.20;47.40;;;;;;4942070;28;20889;-67
2021/03/29 12:41:40;;;;;;;2.60;1.60;;;20.20;47.40;;;;;;4932728;28;20658;-69
2021/03/29 12:44:11;;;;;;;5.90;2.00;;;20.20;47.30;;;;;;4958168;28;20870;-69
2021/03/29 12:46:38;;;;;;;2.60;1.60;;;20.30;47.40;;;;;;4944900;28;21595;-68
2021/03/29 12:49:09;;;;;;;1.73;1.63;;;20.30;47.40;;;;;;4941459;28;20911;-68
2021/03/29 12:51:35;;;;;;;2.40;2.07;;;20.30;47.70;;;;;;4963876;28;20474;-70
2021/03/29 12:54:06;;;;;;;2.10;1.83;;;20.20;47.40;;;;;;4969062;28;20489;-69